Time;durP1;ratioP1;P1;durP2;ratioP2;P2;SDS_P1;SDS_P2;PMS_P1;PMS_P2;Temp;Humidity;BMP_temperature;BMP_pressure;BME280_temperature;BME280_humidity;BME280_pressure;Samples;Min_cycle;Max_cycle;Signal;HPM_P1;HPM_P2
2024/04/15 00:01:26;;;;;;;11.63;2.17;;;;;;;;;;5382246;26;20000;-77
2024/04/15 00:03:53;;;;;;;9.10;1.50;;;;;;;;;;5382667;26;20006;-77
2024/04/15 00:06:20;;;;;;;17.33;2.03;;;;;;;;;;5382154;26;20076;-78
2024/04/15 00:08:46;;;;;;;13.63;2.00;;;;;;;;;;5382614;26;20012;-77
2024/04/15 00:11:13;;;;;;;10.13;1.80;;;;;;;;;;5381941;26;20004;-77
2024/04/15 00:13:40;;;;;;;10.68;1.70;;;;;;;;;;5351873;26;20004;-78
2024/04/15 00:16:09;;;;;;;13.18;1.67;;;;;;;;;;5382138;26;20008;-78
2024/04/15 00:18:36;;;;;;;9.32;1.75;;;;;;;;;;5380832;26;20012;-78
2024/04/15 00:21:08;;;;;;;9.23;1.45;;;;;;;;;;5382122;26;20011;-77
2024/04/15 00:23:35;;;;;;;11.25;1.92;;;;;;;;;;5367257;26;20384;-78
2024/04/15 00:26:02;;;;;;;10.27;1.50;;;;;;;;;;5393814;26;19999;-78
2024/04/15 00:28:29;;;;;;;10.98;1.85;;;;;;;;;;5417203;26;20047;-78
2024/04/15 00:30:56;;;;;;;13.32;1.77;;;;;;;;;;5386624;26;20028;-77
2024/04/15 00:33:23;;;;;;;9.93;2.25;;;;;;;;;;5415323;26;20010;-78
2024/04/15 00:35:50;;;;;;;13.15;1.77;;;;;;;;;;5418050;26;20376;-77
2024/04/15 00:38:17;;;;;;;13.00;2.45;;;;;;;;;;5417534;26;20007;-78
2024/04/15 00:40:44;;;;;;;13.98;2.17;;;;;;;;;;5417618;26;20069;-77
2024/04/15 00:43:11;;;;;;;8.80;1.55;;;;;;;;;;5415310;26;20387;-78
2024/04/15 00:45:39;;;;;;;8.23;1.97;;;;;;;;;;5417395;26;19995;-78
2024/04/15 00:48:11;;;;;;;9.57;2.60;;;;;;;;;;5417126;26;20307;-77
2024/04/15 00:50:40;;;;;;;10.88;1.65;;;;;;;;;;5417506;26;20007;-78
2024/04/15 00:53:10;;;;;;;10.68;1.98;;;;;;;;;;5417165;26;20016;-78
2024/04/15 00:55:37;;;;;;;12.52;1.52;;;;;;;;;;5415604;26;20003;-77
2024/04/15 00:58:06;;;;;;;9.27;1.50;;;;;;;;;;5416806;26;20033;-76
2024/04/15 01:00:34;;;;;;;14.02;1.73;;;;;;;;;;5417267;26;20032;-77
2024/04/15 01:03:01;;;;;;;11.10;1.48;;;;;;;;;;5417337;26;20014;-78
2024/04/15 01:05:28;;;;;;;9.65;1.55;;;;;;;;;;5415082;26;20383;-77
2024/04/15 01:07:55;;;;;;;10.20;1.38;;;;;;;;;;5417073;26;20000;-78
2024/04/15 01:10:22;;;;;;;16.33;2.40;;;;;;;;;;5416833;26;20079;-77
2024/04/15 01:12:51;;;;;;;16.20;2.50;;;;;;;;;;5415336;26;20076;-76
2024/04/15 01:15:18;;;;;;;13.55;1.90;;;;;;;;;;5416730;26;20315;-78
2024/04/15 01:17:45;;;;;;;9.80;1.63;;;;;;;;;;5417275;26;20044;-77
2024/04/15 01:20:12;;;;;;;7.28;1.30;;;;;;;;;;5416246;26;20010;-77
2024/04/15 01:22:52;;;;;;;13.52;3.67;;;;;;;;;;5416942;26;20071;-78
2024/04/15 01:25:19;;;;;;;7.25;1.33;;;;;;;;;;5413543;26;20080;-78
2024/04/15 01:27:46;;;;;;;13.95;1.90;;;;;;;;;;5391306;26;20000;-77
2024/04/15 01:30:13;;;;;;;11.63;1.60;;;;;;;;;;5379177;26;20319;-77
2024/04/15 01:32:39;;;;;;;12.23;1.77;;;;;;;;;;5380129;26;20046;-77
2024/04/15 01:35:06;;;;;;;14.20;1.85;;;;;;;;;;5380897;26;20046;-79
2024/04/15 01:37:33;;;;;;;16.73;3.20;;;;;;;;;;5379340;26;20014;-77
2024/04/15 01:40:00;;;;;;;18.58;1.95;;;;;;;;;;5381275;26;19996;-78
2024/04/15 01:42:27;;;;;;;13.20;1.65;;;;;;;;;;5378857;26;20004;-77
2024/04/15 01:44:54;;;;;;;17.52;2.30;;;;;;;;;;5379362;26;20031;-78
2024/04/15 01:47:20;;;;;;;12.10;1.80;;;;;;;;;;5380752;26;20004;-78
2024/04/15 01:49:47;;;;;;;10.43;1.80;;;;;;;;;;5381036;26;20358;-77
2024/04/15 01:52:14;;;;;;;10.45;1.60;;;;;;;;;;5380809;26;20050;-78
2024/04/15 01:54:43;;;;;;;13.48;1.52;;;;;;;;;;5381127;26;20000;-78
2024/04/15 01:57:10;;;;;;;;;;;;;;;;;;5379387;26;20011;-78
2024/04/15 01:59:36;;;;;;;12.38;1.63;;;;;;;;;;5380842;26;19934;-77
2024/04/15 02:02:03;;;;;;;10.52;2.17;;;;;;;;;;5381054;26;20530;-78
2024/04/15 02:04:31;;;;;;;15.98;1.83;;;;;;;;;;5380935;26;20036;-78
2024/04/15 02:06:58;;;;;;;16.65;2.85;;;;;;;;;;5378992;26;20074;-77
2024/04/15 02:09:25;;;;;;;14.07;1.90;;;;;;;;;;5378587;26;20015;-77
2024/04/15 02:11:52;;;;;;;9.70;1.45;;;;;;;;;;5380865;26;20073;-78
2024/04/15 02:14:18;;;;;;;14.63;1.98;;;;;;;;;;5378596;26;20074;-78
2024/04/15 02:16:46;;;;;;;12.82;1.50;;;;;;;;;;5349830;26;20073;-77
2024/04/15 02:19:13;;;;;;;15.15;2.35;;;;;;;;;;5380627;26;20393;-77
2024/04/15 02:21:40;;;;;;;12.43;1.52;;;;;;;;;;5380555;26;20027;-77
2024/04/15 02:24:07;;;;;;;11.30;2.22;;;;;;;;;;5378230;26;19996;-77
2024/04/15 02:26:33;;;;;;;10.10;2.05;;;;;;;;;;5380219;26;20012;-78
2024/04/15 02:29:00;;;;;;;8.00;1.90;;;;;;;;;;5386950;26;20105;-77
2024/04/15 02:31:27;;;;;;;10.90;1.58;;;;;;;;;;5379970;26;20007;-77
2024/04/15 02:33:54;;;;;;;7.80;1.58;;;;;;;;;;5378389;26;20035;-78
2024/04/15 02:36:21;;;;;;;11.88;1.33;;;;;;;;;;5377947;26;20447;-78
2024/04/15 02:38:49;;;;;;;12.27;1.65;;;;;;;;;;5380231;26;20008;-78
2024/04/15 02:41:16;;;;;;;10.90;1.80;;;;;;;;;;5379865;26;19999;-78
2024/04/15 02:43:43;;;;;;;10.77;2.35;;;;;;;;;;5382428;26;20000;-78
2024/04/15 02:46:10;;;;;;;8.75;1.58;;;;;;;;;;5383364;26;20346;-77
2024/04/15 02:48:37;;;;;;;10.68;2.00;;;;;;;;;;5383570;26;20012;-78
2024/04/15 02:51:04;;;;;;;14.48;2.13;;;;;;;;;;5381654;26;19997;-77
2024/04/15 02:53:32;;;;;;;9.02;1.20;;;;;;;;;;5383698;26;19996;-78
2024/04/15 02:56:00;;;;;;;8.05;1.58;;;;;;;;;;5383693;26;20023;-78
2024/04/15 02:58:27;;;;;;;11.85;1.73;;;;;;;;;;5381277;26;20012;-77
2024/04/15 03:00:56;;;;;;;10.18;1.55;;;;;;;;;;5381833;26;20008;-78
2024/04/15 03:03:23;;;;;;;14.32;1.50;;;;;;;;;;5383057;26;20015;-78
2024/04/15 03:05:50;;;;;;;15.20;1.80;;;;;;;;;;5383568;26;19996;-78
2024/04/15 03:08:16;;;;;;;9.77;1.42;;;;;;;;;;5383301;26;20077;-78
2024/04/15 03:10:43;;;;;;;4.80;1.42;;;;;;;;;;5381647;26;20073;-78
2024/04/15 03:13:10;;;;;;;10.25;2.40;;;;;;;;;;5383078;26;20435;-78
2024/04/15 03:15:37;;;;;;;9.85;1.70;;;;;;;;;;5381614;26;20327;-77
2024/04/15 03:18:04;;;;;;;10.23;1.88;;;;;;;;;;5383308;26;20000;-77
2024/04/15 03:20:31;;;;;;;11.95;1.60;;;;;;;;;;5381287;26;20000;-78
2024/04/15 03:22:58;;;;;;;7.78;1.48;;;;;;;;;;5381379;26;20000;-77
2024/04/15 03:25:24;;;;;;;7.65;1.70;;;;;;;;;;5383254;26;20077;-78
2024/04/15 03:27:51;;;;;;;20.65;2.13;;;;;;;;;;5391720;26;20008;-77
2024/04/15 03:30:18;;;;;;;11.90;1.77;;;;;;;;;;5382684;26;20008;-79
2024/04/15 03:32:45;;;;;;;10.40;1.35;;;;;;;;;;5352435;26;20047;-77
2024/04/15 03:35:14;;;;;;;13.18;2.03;;;;;;;;;;5382862;26;20011;-78
2024/04/15 03:37:42;;;;;;;12.88;1.75;;;;;;;;;;5383038;26;20031;-77
2024/04/15 03:40:09;;;;;;;11.05;2.08;;;;;;;;;;5382750;26;20011;-78
2024/04/15 03:42:36;;;;;;;11.43;2.08;;;;;;;;;;5381316;26;19996;-77
2024/04/15 03:45:04;;;;;;;10.98;1.50;;;;;;;;;;5382801;26;20105;-77
2024/04/15 03:47:31;;;;;;;7.78;1.40;;;;;;;;;;5382643;26;20000;-77
2024/04/15 03:49:58;;;;;;;9.60;2.40;;;;;;;;;;5382967;26;20315;-77
2024/04/15 03:52:24;;;;;;;6.53;1.55;;;;;;;;;;5382330;26;20415;-78
2024/04/15 03:54:51;;;;;;;9.40;1.50;;;;;;;;;;5382246;26;20077;-76
2024/04/15 03:57:18;;;;;;;11.20;1.80;;;;;;;;;;5382267;26;20011;-78
2024/04/15 03:59:45;;;;;;;6.57;1.90;;;;;;;;;;5381322;26;20236;-78
2024/04/15 04:02:12;;;;;;;14.15;1.92;;;;;;;;;;5380596;26;20272;-77
2024/04/15 04:04:40;;;;;;;16.05;1.58;;;;;;;;;;5382714;26;20008;-77
2024/04/15 04:07:07;;;;;;;8.80;1.65;;;;;;;;;;5351593;26;20016;-77
2024/04/15 04:09:34;;;;;;;13.50;2.25;;;;;;;;;;5380752;26;20109;-79
2024/04/15 04:12:01;;;;;;;9.07;1.65;;;;;;;;;;5382555;26;20351;-78
2024/04/15 04:14:28;;;;;;;10.27;1.52;;;;;;;;;;5382039;26;20072;-78
2024/04/15 04:16:55;;;;;;;12.48;1.67;;;;;;;;;;5380581;26;20526;-77
2024/04/15 04:19:22;;;;;;;11.52;1.50;;;;;;;;;;5380309;26;20015;-78
2024/04/15 04:21:49;;;;;;;12.38;1.40;;;;;;;;;;5382504;26;19996;-78
2024/04/15 04:24:17;;;;;;;13.48;1.90;;;;;;;;;;5380168;26;20000;-78
2024/04/15 04:26:44;;;;;;;13.02;2.08;;;;;;;;;;5380133;26;19996;-77
2024/04/15 04:29:11;;;;;;;10.45;2.05;;;;;;;;;;5379917;26;20012;-77
2024/04/15 04:31:38;;;;;;;19.05;2.17;;;;;;;;;;5380579;26;20004;-78
2024/04/15 04:34:05;;;;;;;9.45;1.75;;;;;;;;;;5381635;26;20077;-78
2024/04/15 04:36:32;;;;;;;14.05;1.77;;;;;;;;;;5380483;26;20011;-78
2024/04/15 04:38:58;;;;;;;12.73;1.65;;;;;;;;;;5381889;26;20004;-79
2024/04/15 04:41:25;;;;;;;11.00;1.73;;;;;;;;;;5381771;26;19996;-78
2024/04/15 04:43:53;;;;;;;10.90;1.77;;;;;;;;;;5351150;26;20019;-78
2024/04/15 04:46:20;;;;;;;14.43;2.17;;;;;;;;;;5379916;26;20000;-77
2024/04/15 04:48:49;;;;;;;12.05;1.80;;;;;;;;;;5380320;26;20380;-78
2024/04/15 04:51:16;;;;;;;14.10;1.88;;;;;;;;;;5381464;26;20431;-78
2024/04/15 04:53:43;;;;;;;11.63;1.70;;;;;;;;;;5380476;26;20004;-78
2024/04/15 04:56:11;;;;;;;11.57;2.00;;;;;;;;;;5379227;26;20000;-78
2024/04/15 04:58:38;;;;;;;12.75;1.67;;;;;;;;;;5381919;26;20012;-78
2024/04/15 05:01:18;;;;;;;10.82;1.48;;;;;;;;;;5381471;26;20122;-79
2024/04/15 05:03:47;;;;;;;11.10;2.25;;;;;;;;;;5382051;26;20004;-78
2024/04/15 05:06:16;;;;;;;7.90;1.85;;;;;;;;;;5379903;26;19996;-78
2024/04/15 05:08:44;;;;;;;8.40;1.30;;;;;;;;;;5381592;26;20064;-78
2024/04/15 05:11:11;;;;;;;11.90;1.75;;;;;;;;;;5381491;26;20047;-79
2024/04/15 05:13:39;;;;;;;13.38;1.75;;;;;;;;;;5381505;26;20008;-78
2024/04/15 05:16:11;;;;;;;8.80;1.73;;;;;;;;;;5381408;26;20024;-77
2024/04/15 05:18:39;;;;;;;18.08;2.55;;;;;;;;;;5381397;26;20004;-77
2024/04/15 05:21:19;;;;;;;8.43;1.30;;;;;;;;;;5379469;26;19996;-79
2024/04/15 05:23:47;;;;;;;8.50;1.40;;;;;;;;;;5379735;26;20012;-79
2024/04/15 05:26:14;;;;;;;12.85;1.55;;;;;;;;;;5383547;26;20000;-79
2024/04/15 05:28:41;;;;;;;14.35;2.75;;;;;;;;;;5402030;26;20063;-79
2024/04/15 05:31:07;;;;;;;12.52;1.67;;;;;;;;;;5416629;26;20011;-78
2024/04/15 05:33:34;;;;;;;11.27;1.38;;;;;;;;;;5416815;26;19999;-82
2024/04/15 05:36:01;;;;;;;12.35;1.55;;;;;;;;;;5414979;26;20010;-77
2024/04/15 05:38:29;;;;;;;12.18;1.23;;;;;;;;;;5416415;26;20036;-76
2024/04/15 05:40:56;;;;;;;15.07;2.00;;;;;;;;;;5415050;26;20000;-76
2024/04/15 05:43:23;;;;;;;8.48;1.80;;;;;;;;;;5416282;26;20023;-77
2024/04/15 05:45:50;;;;;;;11.32;1.50;;;;;;;;;;5414844;26;20068;-77
2024/04/15 05:48:17;;;;;;;14.95;1.90;;;;;;;;;;5416280;26;20326;-76
2024/04/15 05:50:46;;;;;;;13.73;1.83;;;;;;;;;;5416749;26;19995;-77
2024/04/15 05:53:13;;;;;;;14.23;2.22;;;;;;;;;;5416182;26;20000;-76
2024/04/15 05:55:40;;;;;;;12.05;1.80;;;;;;;;;;5416601;26;20438;-77
2024/04/15 05:58:08;;;;;;;15.18;1.60;;;;;;;;;;5416209;26;20373;-76
2024/04/15 06:00:35;;;;;;;15.57;1.60;;;;;;;;;;5416162;26;20043;-77
2024/04/15 06:03:02;;;;;;;15.27;2.00;;;;;;;;;;5414638;26;20000;-76
2024/04/15 06:05:29;;;;;;;12.30;1.60;;;;;;;;;;5401573;26;20080;-76
2024/04/15 06:07:56;;;;;;;12.05;2.15;;;;;;;;;;5416699;26;20003;-77
2024/04/15 06:10:24;;;;;;;26.30;3.58;;;;;;;;;;5415849;26;20007;-76
2024/04/15 06:12:51;;;;;;;13.23;1.40;;;;;;;;;;5416298;26;19995;-77
2024/04/15 06:15:18;;;;;;;17.55;1.92;;;;;;;;;;5415672;26;20000;-77
2024/04/15 06:17:46;;;;;;;15.20;2.53;;;;;;;;;;5415014;26;20007;-77
2024/04/15 06:20:13;;;;;;;15.30;2.17;;;;;;;;;;5419190;26;19999;-76
2024/04/15 06:22:40;;;;;;;15.30;2.28;;;;;;;;;;5419595;26;19996;-77
2024/04/15 06:25:07;;;;;;;13.60;2.33;;;;;;;;;;5417321;26;20004;-77
2024/04/15 06:27:34;;;;;;;20.80;1.98;;;;;;;;;;5398180;26;20385;-77
2024/04/15 06:30:04;;;;;;;12.20;1.92;;;;;;;;;;5383907;26;20004;-77
2024/04/15 06:32:31;;;;;;;12.52;1.75;;;;;;;;;;5381907;26;20015;-78
2024/04/15 06:34:58;;;;;;;18.67;2.60;;;;;;;;;;5384005;26;20008;-78
2024/04/15 06:37:25;;;;;;;16.15;1.90;;;;;;;;;;5383604;26;19996;-78
2024/04/15 06:39:52;;;;;;;12.50;1.65;;;;;;;;;;5381874;26;20000;-77
2024/04/15 06:42:18;;;;;;;17.00;2.50;;;;;;;;;;5383303;26;20004;-78
2024/04/15 06:44:45;;;;;;;14.30;2.35;;;;;;;;;;5383979;26;20423;-77
2024/04/15 06:47:13;;;;;;;14.52;1.90;;;;;;;;;;5383780;26;20050;-78
2024/04/15 06:49:40;;;;;;;14.57;2.20;;;;;;;;;;5382034;26;19996;-77
2024/04/15 06:52:07;;;;;;;16.33;2.15;;;;;;;;;;5383083;26;20000;-78
2024/04/15 06:54:36;;;;;;;16.73;2.15;;;;;;;;;;5383516;26;20004;-81
2024/04/15 06:57:04;;;;;;;17.25;1.80;;;;;;;;;;5381349;26;20039;-80
2024/04/15 06:59:31;;;;;;;13.93;2.03;;;;;;;;;;5383475;26;19996;-81
2024/04/15 07:01:57;;;;;;;19.27;2.20;;;;;;;;;;5325512;26;20329;-81
2024/04/15 07:04:25;;;;;;;16.95;2.63;;;;;;;;;;5380871;26;20004;-77
2024/04/15 07:06:52;;;;;;;15.13;2.00;;;;;;;;;;5402231;26;20349;-78
2024/04/15 07:09:18;;;;;;;14.60;2.70;;;;;;;;;;5377572;26;20008;-77
2024/04/15 07:11:46;;;;;;;18.88;2.60;;;;;;;;;;5381794;26;20439;-78
2024/04/15 07:14:13;;;;;;;15.53;2.00;;;;;;;;;;5379553;26;20014;-77
2024/04/15 07:16:40;;;;;;;19.73;2.17;;;;;;;;;;5379042;26;20076;-78
2024/04/15 07:19:07;;;;;;;22.90;3.00;;;;;;;;;;5381141;26;20007;-77
2024/04/15 07:21:34;;;;;;;11.85;2.38;;;;;;;;;;5373629;26;20004;-78
2024/04/15 07:24:00;;;;;;;23.15;3.08;;;;;;;;;;5371148;26;20032;-78
2024/04/15 07:26:27;;;;;;;18.70;2.65;;;;;;;;;;5380961;26;20050;-78
2024/04/15 07:28:54;;;;;;;11.63;2.10;;;;;;;;;;5372173;26;20491;-78
2024/04/15 07:31:21;;;;;;;14.48;2.58;;;;;;;;;;5380087;26;20081;-78
2024/04/15 07:33:48;;;;;;;20.15;2.83;;;;;;;;;;5379002;26;20011;-78
2024/04/15 07:36:16;;;;;;;14.30;2.00;;;;;;;;;;5381177;26;20011;-78
2024/04/15 07:38:43;;;;;;;20.80;2.63;;;;;;;;;;5380864;26;20423;-77
2024/04/15 07:41:10;;;;;;;20.35;2.65;;;;;;;;;;5380926;26;20130;-77
2024/04/15 07:43:37;;;;;;;20.63;2.33;;;;;;;;;;5381957;26;19996;-81
2024/04/15 07:46:03;;;;;;;24.75;3.13;;;;;;;;;;5380569;26;20073;-80
2024/04/15 07:48:32;;;;;;;15.38;2.33;;;;;;;;;;5380641;26;20011;-77
2024/04/15 07:50:58;;;;;;;21.77;2.80;;;;;;;;;;5380085;26;20001;-78
2024/04/15 07:53:25;;;;;;;18.00;2.13;;;;;;;;;;5413669;26;20379;-78
2024/04/15 07:55:52;;;;;;;23.45;3.40;;;;;;;;;;5442908;26;20006;-77
2024/04/15 07:58:19;;;;;;;25.42;3.08;;;;;;;;;;5451533;26;20438;-77
2024/04/15 08:00:46;;;;;;;21.63;2.80;;;;;;;;;;5451582;26;20430;-77
2024/04/15 08:03:13;;;;;;;13.25;2.03;;;;;;;;;;5450174;26;19998;-78
2024/04/15 08:05:40;;;;;;;16.20;2.80;;;;;;;;;;5448336;26;20007;-77
2024/04/15 08:08:07;;;;;;;24.38;3.65;;;;;;;;;;5385766;26;20051;-77
2024/04/15 08:10:34;;;;;;;16.52;2.63;;;;;;;;;;5378861;26;20072;-78
2024/04/15 08:13:02;;;;;;;15.80;2.55;;;;;;;;;;5381193;26;20077;-78
2024/04/15 08:15:31;;;;;;;19.92;2.53;;;;;;;;;;5445264;26;20002;-77
2024/04/15 08:17:59;;;;;;;20.60;2.60;;;;;;;;;;5418443;26;20005;-78
2024/04/15 08:20:26;;;;;;;18.98;2.42;;;;;;;;;;5372738;26;20026;-81
2024/04/15 08:22:53;;;;;;;26.67;3.10;;;;;;;;;;5379634;26;20431;-77
2024/04/15 08:25:20;;;;;;;20.05;3.30;;;;;;;;;;5414358;26;20040;-78
2024/04/15 08:27:47;;;;;;;17.15;3.30;;;;;;;;;;5388194;26;20011;-78
2024/04/15 08:30:14;;;;;;;13.30;2.92;;;;;;;;;;5381818;26;20012;-77
2024/04/15 08:32:41;;;;;;;17.27;3.53;;;;;;;;;;5382353;26;20028;-77
2024/04/15 08:35:08;;;;;;;21.33;2.80;;;;;;;;;;5380226;26;19996;-75
2024/04/15 08:37:35;;;;;;;16.17;2.63;;;;;;;;;;5380512;26;20036;-75
2024/04/15 08:40:04;;;;;;;16.58;2.50;;;;;;;;;;5382178;26;20004;-76
2024/04/15 08:42:43;;;;;;;16.58;1.85;;;;;;;;;;5381664;26;20014;-76
2024/04/15 08:45:17;;;;;;;18.83;3.25;;;;;;;;;;5381855;26;20006;-76
2024/04/15 08:47:48;;;;;;;20.65;2.35;;;;;;;;;;5382330;26;20072;-76
2024/04/15 08:50:15;;;;;;;16.80;2.20;;;;;;;;;;5381956;26;20446;-75
2024/04/15 08:52:42;;;;;;;16.67;1.80;;;;;;;;;;5382067;26;20001;-75
2024/04/15 08:55:11;;;;;;;16.20;3.17;;;;;;;;;;5380078;26;20012;-76
2024/04/15 08:57:38;;;;;;;13.52;1.67;;;;;;;;;;5382119;26;20000;-76
2024/04/15 09:00:06;;;;;;;17.55;2.05;;;;;;;;;;5382167;26;20012;-76
2024/04/15 09:02:33;;;;;;;14.30;2.90;;;;;;;;;;5381630;26;20073;-75
2024/04/15 09:05:00;;;;;;;15.20;2.80;;;;;;;;;;5380150;26;20324;-75
2024/04/15 09:07:27;;;;;;;13.60;2.63;;;;;;;;;;5381016;26;20627;-75
2024/04/15 09:09:54;;;;;;;17.90;2.22;;;;;;;;;;5381824;26;20129;-75
2024/04/15 09:12:21;;;;;;;12.75;2.50;;;;;;;;;;5381410;26;20012;-75
2024/04/15 09:14:48;;;;;;;19.70;2.90;;;;;;;;;;5380041;26;20003;-74
2024/04/15 09:17:16;;;;;;;19.92;2.65;;;;;;;;;;5381205;26;20652;-74
2024/04/15 09:19:47;;;;;;;15.88;2.10;;;;;;;;;;5381588;26;19996;-75
2024/04/15 09:22:14;;;;;;;14.43;2.38;;;;;;;;;;5381451;26;20008;-74
2024/04/15 09:24:41;;;;;;;15.38;2.10;;;;;;;;;;5381663;26;19996;-74
2024/04/15 09:27:08;;;;;;;15.68;2.40;;;;;;;;;;5380715;26;20008;-74
2024/04/15 09:29:35;;;;;;;16.10;2.25;;;;;;;;;;5381440;26;20000;-75
2024/04/15 09:32:04;;;;;;;12.35;2.08;;;;;;;;;;5381573;26;20059;-74
2024/04/15 09:34:31;;;;;;;15.00;1.60;;;;;;;;;;5416770;26;20068;-75
2024/04/15 09:36:58;;;;;;;13.00;2.05;;;;;;;;;;5417079;26;19995;-75
2024/04/15 09:39:26;;;;;;;11.13;1.83;;;;;;;;;;5414811;26;20011;-75
2024/04/15 09:41:54;;;;;;;6.50;1.38;;;;;;;;;;5416718;26;20043;-75
2024/04/15 09:44:22;;;;;;;7.47;1.50;;;;;;;;;;5414730;26;20011;-75
2024/04/15 09:46:51;;;;;;;12.52;1.63;;;;;;;;;;5416711;26;20076;-75
2024/04/15 09:49:21;;;;;;;9.75;1.52;;;;;;;;;;5416225;26;19999;-75
2024/04/15 09:51:51;;;;;;;6.50;1.58;;;;;;;;;;5416487;26;20000;-74
2024/04/15 09:54:25;;;;;;;9.55;2.10;;;;;;;;;;5415604;26;20039;-74
2024/04/15 09:56:55;;;;;;;9.63;1.50;;;;;;;;;;5416644;26;20072;-75
2024/04/15 09:59:24;;;;;;;17.08;2.20;;;;;;;;;;5416149;26;20045;-74
2024/04/15 10:01:53;;;;;;;16.10;2.25;;;;;;;;;;5416374;26;20076;-74
2024/04/15 10:04:21;;;;;;;13.10;2.00;;;;;;;;;;5416048;26;19995;-74
2024/04/15 10:06:53;;;;;;;11.40;1.90;;;;;;;;;;5416354;26;20002;-75
2024/04/15 10:09:20;;;;;;;15.70;2.47;;;;;;;;;;5416091;26;20000;-75
2024/04/15 10:11:49;;;;;;;13.20;2.40;;;;;;;;;;5414548;26;20011;-74
2024/04/15 10:14:16;;;;;;;;;;;;;;;;;;5416504;26;20511;-74
2024/04/15 10:16:47;;;;;;;14.70;2.17;;;;;;;;;;5416281;26;19994;-75
2024/04/15 10:19:41;;;;;;;13.30;1.65;;;;;;;;;;5416021;26;19999;-74
2024/04/15 10:22:08;;;;;;;12.05;1.85;;;;;;;;;;5415507;26;20031;-74
2024/04/15 10:24:37;;;;;;;13.18;1.92;;;;;;;;;;5416219;26;20007;-75
2024/04/15 10:27:05;;;;;;;17.70;2.28;;;;;;;;;;5399740;26;20000;-73
2024/04/15 10:29:33;;;;;;;16.90;2.47;;;;;;;;;;5380251;26;20008;-75
2024/04/15 10:31:59;;;;;;;11.90;1.67;;;;;;;;;;5349972;26;20292;-75
2024/04/15 10:34:27;;;;;;;15.98;2.20;;;;;;;;;;5379486;26;20006;-75
2024/04/15 10:36:55;;;;;;;6.55;1.40;;;;;;;;;;5373121;26;20019;-75
2024/04/15 10:39:23;;;;;;;9.95;1.77;;;;;;;;;;5374738;26;20000;-75
2024/04/15 10:41:51;;;;;;;10.45;1.70;;;;;;;;;;5378618;26;20012;-75
2024/04/15 10:44:18;;;;;;;10.70;1.80;;;;;;;;;;5378133;26;20019;-75
2024/04/15 10:46:47;;;;;;;12.68;1.88;;;;;;;;;;5378038;26;20004;-75
2024/04/15 10:49:15;;;;;;;14.38;1.88;;;;;;;;;;5377917;26;20000;-75
2024/04/15 10:51:43;;;;;;;9.93;1.70;;;;;;;;;;5378400;26;20000;-75
2024/04/15 10:54:10;;;;;;;11.20;1.90;;;;;;;;;;5405198;26;20100;-74
2024/04/15 10:56:37;;;;;;;11.65;1.98;;;;;;;;;;5409640;26;20010;-75
2024/04/15 10:59:04;;;;;;;11.65;1.92;;;;;;;;;;5377492;26;20028;-73
2024/04/15 11:01:31;;;;;;;11.05;2.30;;;;;;;;;;5377822;26;20074;-76
2024/04/15 11:03:58;;;;;;;14.55;2.30;;;;;;;;;;5375921;26;19996;-75
2024/04/15 11:06:27;;;;;;;11.15;2.17;;;;;;;;;;5378377;26;20442;-76
2024/04/15 11:08:56;;;;;;;11.00;2.13;;;;;;;;;;5379159;26;20004;-76
2024/04/15 11:11:23;;;;;;;16.27;2.42;;;;;;;;;;5381344;26;20375;-76
2024/04/15 11:13:52;;;;;;;;;;;;;;;;;;5381867;26;20479;-75
2024/04/15 11:16:19;;;;;;;16.20;2.17;;;;;;;;;;5381193;26;20413;-75
2024/04/15 11:18:46;;;;;;;16.23;2.17;;;;;;;;;;5382291;26;20004;-76
2024/04/15 11:21:13;;;;;;;14.43;2.33;;;;;;;;;;5379630;26;20040;-76
2024/04/15 11:23:40;;;;;;;16.92;1.83;;;;;;;;;;5376366;26;20041;-76
2024/04/15 11:26:10;;;;;;;9.57;1.60;;;;;;;;;;5377308;26;20016;-76
2024/04/15 11:28:38;;;;;;;10.25;1.92;;;;;;;;;;5370090;26;20012;-75
2024/04/15 11:31:06;;;;;;;14.15;1.92;;;;;;;;;;5378451;26;20000;-76
2024/04/15 11:33:34;;;;;;;22.48;2.60;;;;;;;;;;5378414;26;20004;-76
2024/04/15 11:36:01;;;;;;;15.10;2.25;;;;;;;;;;5400445;26;20000;-76
2024/04/15 11:38:28;;;;;;;20.15;2.47;;;;;;;;;;5398525;26;20007;-76
2024/04/15 11:40:55;;;;;;;16.05;2.58;;;;;;;;;;5405826;26;19999;-76
2024/04/15 11:43:22;;;;;;;17.67;2.08;;;;;;;;;;5452660;26;20337;-76
2024/04/15 11:45:54;;;;;;;18.13;2.75;;;;;;;;;;5451853;26;20021;-75
2024/04/15 11:48:21;;;;;;;15.52;2.33;;;;;;;;;;5451852;26;20006;-76
2024/04/15 11:50:49;;;;;;;17.40;2.60;;;;;;;;;;5449573;26;19999;-77
2024/04/15 11:53:21;;;;;;;16.05;2.90;;;;;;;;;;5405655;26;20000;-75
2024/04/15 11:55:48;;;;;;;24.05;3.08;;;;;;;;;;5391534;26;20072;-76
2024/04/15 11:58:15;;;;;;;24.10;3.38;;;;;;;;;;5378009;26;20385;-76
2024/04/15 12:00:43;;;;;;;21.52;2.88;;;;;;;;;;5381059;26;20019;-76
2024/04/15 12:03:10;;;;;;;21.40;2.92;;;;;;;;;;5380509;26;20004;-76
2024/04/15 12:05:37;;;;;;;13.05;1.83;;;;;;;;;;5380620;26;20036;-76
2024/04/15 12:08:04;;;;;;;11.23;1.70;;;;;;;;;;5380134;26;20015;-76
2024/04/15 12:10:34;;;;;;;15.00;2.28;;;;;;;;;;5380851;26;20073;-76
2024/04/15 12:13:01;;;;;;;19.95;3.10;;;;;;;;;;5380379;26;20015;-77
2024/04/15 12:15:28;;;;;;;15.15;2.15;;;;;;;;;;5414571;26;20002;-77
2024/04/15 12:17:55;;;;;;;12.80;2.30;;;;;;;;;;5414352;26;20071;-75
2024/04/15 12:20:22;;;;;;;15.65;2.60;;;;;;;;;;5417959;26;20437;-79
2024/04/15 12:22:49;;;;;;;10.70;2.00;;;;;;;;;;5418113;26;20006;-78
2024/04/15 12:25:16;;;;;;;14.55;2.20;;;;;;;;;;5386014;26;19996;-79
2024/04/15 12:27:44;;;;;;;18.10;2.63;;;;;;;;;;5391212;26;20040;-78
2024/04/15 12:30:12;;;;;;;13.40;2.43;;;;;;;;;;5380019;26;20011;-77
2024/04/15 12:32:40;;;;;;;13.00;2.03;;;;;;;;;;5380802;26;20329;-78
2024/04/15 12:35:07;;;;;;;15.25;2.25;;;;;;;;;;5380090;26;20028;-78
2024/04/15 12:37:34;;;;;;;17.90;3.20;;;;;;;;;;5380326;26;20014;-77
2024/04/15 12:40:05;;;;;;;18.00;2.50;;;;;;;;;;5380662;26;19996;-78
2024/04/15 12:42:33;;;;;;;15.65;2.28;;;;;;;;;;5351172;26;20054;-79
2024/04/15 12:45:01;;;;;;;18.30;2.67;;;;;;;;;;5382214;26;20000;-77
2024/04/15 12:47:27;;;;;;;16.33;1.95;;;;;;;;;;5381600;26;20068;-77
2024/04/15 12:49:54;;;;;;;19.55;2.78;;;;;;;;;;5382262;26;19996;-77
2024/04/15 12:52:21;;;;;;;15.50;2.40;;;;;;;;;;5381718;26;20346;-76
2024/04/15 12:54:48;;;;;;;20.38;3.17;;;;;;;;;;5380369;26;20000;-76
2024/04/15 12:57:19;;;;;;;22.65;2.58;;;;;;;;;;5381571;26;19996;-76
2024/04/15 12:59:46;;;;;;;16.27;2.55;;;;;;;;;;5380415;26;20036;-75
2024/04/15 13:02:13;;;;;;;13.18;1.98;;;;;;;;;;5381593;26;20015;-74
2024/04/15 13:04:40;;;;;;;8.95;1.80;;;;;;;;;;5381497;26;20023;-73
2024/04/15 13:07:08;;;;;;;12.98;2.10;;;;;;;;;;5380533;26;19996;-75
2024/04/15 13:09:36;;;;;;;10.48;1.60;;;;;;;;;;5381582;26;19996;-74
2024/04/15 13:12:03;;;;;;;14.65;2.33;;;;;;;;;;5379903;26;20010;-74
2024/04/15 13:14:30;;;;;;;13.37;2.57;;;;;;;;;;5379731;26;20000;-75
2024/04/15 13:16:57;;;;;;;15.63;2.50;;;;;;;;;;5381637;26;20432;-75
2024/04/15 13:19:24;;;;;;;18.35;2.90;;;;;;;;;;5379665;26;20027;-75
2024/04/15 13:21:51;;;;;;;12.80;2.67;;;;;;;;;;5381496;26;20445;-75
2024/04/15 13:24:18;;;;;;;20.00;3.58;;;;;;;;;;5380770;26;20069;-76
2024/04/15 13:26:46;;;;;;;20.88;3.53;;;;;;;;;;5391916;26;20073;-75
2024/04/15 13:29:12;;;;;;;32.95;3.95;;;;;;;;;;5378236;26;20000;-77
2024/04/15 13:31:39;;;;;;;26.35;3.65;;;;;;;;;;5381644;26;19996;-78
2024/04/15 13:34:08;;;;;;;33.97;4.47;;;;;;;;;;5379172;26;20036;-78
2024/04/15 13:36:35;;;;;;;23.80;4.28;;;;;;;;;;5381528;26;20050;-77
2024/04/15 13:39:02;;;;;;;27.50;4.32;;;;;;;;;;5379580;26;20012;-78
2024/04/15 13:41:29;;;;;;;29.00;3.97;;;;;;;;;;5379096;26;20042;-78
2024/04/15 13:43:56;;;;;;;18.75;3.78;;;;;;;;;;5379483;26;20073;-78
2024/04/15 13:46:23;;;;;;;19.77;3.35;;;;;;;;;;5380817;26;20004;-78
2024/04/15 13:48:49;;;;;;;26.00;3.80;;;;;;;;;;5381225;26;20000;-78
2024/04/15 13:51:16;;;;;;;21.42;3.38;;;;;;;;;;5380811;26;20378;-78
2024/04/15 13:53:45;;;;;;;24.30;3.85;;;;;;;;;;5381181;26;20098;-78
2024/04/15 13:56:12;;;;;;;25.15;3.30;;;;;;;;;;5378804;26;20008;-78
2024/04/15 13:58:39;;;;;;;21.35;3.03;;;;;;;;;;5350441;26;20027;-79
2024/04/15 14:01:06;;;;;;;19.58;2.85;;;;;;;;;;5380548;26;20046;-79
2024/04/15 14:03:33;;;;;;;18.42;3.13;;;;;;;;;;5381077;26;19996;-78
2024/04/15 14:06:00;;;;;;;23.42;3.15;;;;;;;;;;5401493;26;20019;-79
2024/04/15 14:08:27;;;;;;;24.23;4.75;;;;;;;;;;5413588;26;20032;-79
2024/04/15 14:10:54;;;;;;;26.25;4.05;;;;;;;;;;5414523;26;20009;-79
2024/04/15 14:13:22;;;;;;;24.45;4.65;;;;;;;;;;5416092;26;20007;-77
2024/04/15 14:15:49;;;;;;;30.92;5.20;;;;;;;;;;5414477;26;19995;-79
2024/04/15 14:18:16;;;;;;;30.73;4.95;;;;;;;;;;5415715;26;19996;-79
2024/04/15 14:20:43;;;;;;;35.17;4.95;;;;;;;;;;5416035;26;20018;-78
2024/04/15 14:23:10;;;;;;;31.23;5.28;;;;;;;;;;5413714;26;20069;-78
2024/04/15 14:25:37;;;;;;;37.83;6.28;;;;;;;;;;5379480;26;20432;-78
2024/04/15 14:28:07;;;;;;;28.42;4.45;;;;;;;;;;5404040;26;20015;-77
2024/04/15 14:30:34;;;;;;;43.53;5.93;;;;;;;;;;5412756;26;20010;-78
2024/04/15 14:33:01;;;;;;;38.85;5.85;;;;;;;;;;5414510;26;20019;-77
2024/04/15 14:35:28;;;;;;;38.53;7.25;;;;;;;;;;5414121;26;20003;-78